createdAt,value
2024-05-09T00:01:33.228Z,13.58
2024-05-09T00:04:03.400Z,13.55
2024-05-09T00:06:36.112Z,13.50
2024-05-09T00:09:06.144Z,13.55
2024-05-09T00:11:43.737Z,13.57
2024-05-09T00:14:13.989Z,13.51
2024-05-09T00:17:02.233Z,13.49
2024-05-09T00:19:33.914Z,13.56
2024-05-09T00:22:07.134Z,13.64
2024-05-09T00:24:39.849Z,13.65
2024-05-09T00:27:12.690Z,13.68
2024-05-09T00:29:43.298Z,13.62
2024-05-09T00:32:14.312Z,13.70
2024-05-09T00:34:47.540Z,13.73
2024-05-09T00:37:21.993Z,13.72
2024-05-09T00:39:52.031Z,13.72
2024-05-09T00:42:22.213Z,13.68
2024-05-09T00:44:52.176Z,13.75
2024-05-09T00:47:22.608Z,13.70
2024-05-09T00:49:52.983Z,13.74
2024-05-09T00:52:28.188Z,13.74
2024-05-09T00:54:59.501Z,13.65
2024-05-09T00:57:30.529Z,13.74
2024-05-09T01:00:00.621Z,13.73
2024-05-09T01:02:31.044Z,13.71
2024-05-09T01:05:01.320Z,13.87
2024-05-09T01:07:34.173Z,13.79
2024-05-09T01:10:05.545Z,13.90
2024-05-09T01:12:37.128Z,13.82
2024-05-09T01:15:07.927Z,13.92
2024-05-09T01:17:38.226Z,13.98
2024-05-09T01:20:12.946Z,13.89
2024-05-09T01:22:54.071Z,13.81
2024-05-09T01:25:26.743Z,13.84
2024-05-09T01:27:56.742Z,13.97
2024-05-09T01:30:33.807Z,14.01
2024-05-09T01:33:08.464Z,13.94
2024-05-09T01:35:41.841Z,13.96
2024-05-09T01:38:13.983Z,13.97
2024-05-09T01:40:48.101Z,13.96
2024-05-09T01:43:18.476Z,13.92
2024-05-09T01:45:48.454Z,13.86
2024-05-09T01:48:18.562Z,13.92
2024-05-09T01:50:48.658Z,13.95
2024-05-09T01:53:18.778Z,13.89
2024-05-09T01:55:51.525Z,13.67
2024-05-09T01:58:21.552Z,13.78
2024-05-09T02:00:51.592Z,13.72
2024-05-09T02:03:21.753Z,13.71
2024-05-09T02:05:52.605Z,13.64
2024-05-09T02:08:24.087Z,13.56
2024-05-09T02:10:56.880Z,13.60
2024-05-09T02:13:26.920Z,13.64
2024-05-09T02:15:56.908Z,13.60
2024-05-09T02:18:27.100Z,13.56
2024-05-09T02:20:57.168Z,13.49
2024-05-09T02:23:27.287Z,13.49
2024-05-09T02:26:00.043Z,13.50
2024-05-09T02:28:30.067Z,13.39
2024-05-09T02:31:00.092Z,13.50
2024-05-09T02:33:31.081Z,13.48
2024-05-09T02:36:01.330Z,13.38
2024-05-09T02:38:31.830Z,13.49
2024-05-09T02:41:01.970Z,13.49
2024-05-09T02:43:32.017Z,13.55
2024-05-09T02:45:59.397Z,13.59
2024-05-09T02:48:29.523Z,13.58
2024-05-09T02:50:57.242Z,13.74
2024-05-09T02:53:27.308Z,13.67
2024-05-09T02:55:54.733Z,13.60
2024-05-09T02:58:27.440Z,13.50
2024-05-09T03:00:54.944Z,13.52
2024-05-09T03:03:25.075Z,13.47
2024-05-09T03:05:52.675Z,13.50
2024-05-09T03:08:22.771Z,13.41
2024-05-09T03:10:50.124Z,13.60
2024-05-09T03:13:20.133Z,13.51
2024-05-09T03:15:50.126Z,13.53
2024-05-09T03:18:20.552Z,13.57
2024-05-09T03:20:47.991Z,13.72
2024-05-09T03:23:18.309Z,13.77
2024-05-09T03:25:45.718Z,13.77
2024-05-09T03:28:22.035Z,13.69
2024-05-09T03:30:52.099Z,13.68
2024-05-09T03:33:22.425Z,13.66
2024-05-09T03:35:50.158Z,13.73
2024-05-09T03:38:20.158Z,13.81
2024-05-09T03:40:51.542Z,13.67
2024-05-09T03:43:22.569Z,13.71
2024-05-09T03:45:55.806Z,13.81
2024-05-09T03:48:23.438Z,13.79
2024-05-09T03:50:53.751Z,13.83
2024-05-09T03:53:22.950Z,13.72
2024-05-09T03:55:53.118Z,13.09
2024-05-09T03:58:20.502Z,13.30
2024-05-09T04:00:50.565Z,13.30
2024-05-09T04:03:20.971Z,13.55
2024-05-09T04:05:51.106Z,13.66
2024-05-09T04:08:18.547Z,13.52
2024-05-09T04:10:48.752Z,13.48
2024-05-09T04:13:16.212Z,13.50
2024-05-09T04:15:46.180Z,13.22
2024-05-09T04:18:13.848Z,13.24
2024-05-09T04:20:46.675Z,13.46
2024-05-09T04:23:14.947Z,13.49
2024-05-09T04:25:47.112Z,13.47
2024-05-09T04:28:14.898Z,13.29
2024-05-09T04:30:45.069Z,13.21
2024-05-09T04:33:14.958Z,13.27
2024-05-09T04:35:49.582Z,13.33
2024-05-09T04:38:17.120Z,13.35
2024-05-09T04:40:47.338Z,13.37
2024-05-09T04:43:16.373Z,13.37
2024-05-09T04:45:46.442Z,13.45
2024-05-09T04:48:14.100Z,13.39
2024-05-09T04:50:47.850Z,13.49
2024-05-09T04:53:17.731Z,13.49
2024-05-09T04:55:50.089Z,13.59
2024-05-09T04:58:17.660Z,13.65
2024-05-09T05:01:23.972Z,13.56
2024-05-09T05:03:55.980Z,13.65
2024-05-09T05:06:35.224Z,13.56
2024-05-09T05:09:15.642Z,13.86
2024-05-09T05:11:46.921Z,13.82
2024-05-09T05:14:14.522Z,13.86
2024-05-09T05:16:55.225Z,13.85
2024-05-09T05:19:41.770Z,13.64
2024-05-09T05:22:15.633Z,13.69
2024-05-09T05:24:43.642Z,13.76
2024-05-09T05:27:13.589Z,13.78
2024-05-09T05:29:47.036Z,13.83
2024-05-09T05:32:17.265Z,13.77
2024-05-09T05:34:44.715Z,13.92
2024-05-09T05:37:17.370Z,13.93
2024-05-09T05:39:45.435Z,14.25
2024-05-09T05:42:15.456Z,14.15
2024-05-09T05:44:42.867Z,14.26
2024-05-09T05:47:12.931Z,14.23
2024-05-09T05:49:48.436Z,14.50
2024-05-09T05:52:21.157Z,14.53
2024-05-09T05:54:49.662Z,14.50
2024-05-09T05:57:19.681Z,14.64
2024-05-09T05:59:47.095Z,14.57
2024-05-09T06:02:17.307Z,14.51
2024-05-09T06:04:44.876Z,14.30
2024-05-09T06:07:14.949Z,14.32
2024-05-09T06:09:47.522Z,14.48
2024-05-09T06:12:18.264Z,14.63
2024-05-09T06:14:45.766Z,14.65
2024-05-09T06:17:15.799Z,14.61
2024-05-09T06:19:43.365Z,14.64
2024-05-09T06:22:13.381Z,14.64
2024-05-09T06:24:40.765Z,14.43
2024-05-09T06:27:13.463Z,14.43
2024-05-09T06:29:40.875Z,14.47
2024-05-09T06:32:11.073Z,14.47
2024-05-09T06:34:38.629Z,14.29
2024-05-09T06:37:13.093Z,14.34
2024-05-09T06:39:40.503Z,14.36
2024-05-09T06:42:13.193Z,14.38
2024-05-09T06:44:40.687Z,14.51
2024-05-09T06:47:10.776Z,14.51
2024-05-09T06:49:38.252Z,14.41
2024-05-09T06:52:09.972Z,14.42
2024-05-09T06:54:37.741Z,14.56
2024-05-09T06:57:09.407Z,14.57
2024-05-09T07:00:22.743Z,14.82
2024-05-09T07:03:16.531Z,14.93
2024-05-09T07:06:15.767Z,15.09
2024-05-09T07:08:53.786Z,15.25
2024-05-09T07:14:27.153Z,15.00
2024-05-09T07:18:05.905Z,14.89
2024-05-09T07:26:44.968Z,14.83
2024-05-09T07:29:12.518Z,14.89
2024-05-09T07:31:42.538Z,14.78
2024-05-09T07:34:11.955Z,14.82
2024-05-09T07:36:51.462Z,15.16
2024-05-09T07:39:37.621Z,15.23
2024-05-09T07:43:03.944Z,15.21
2024-05-09T07:49:45.387Z,15.49
2024-05-09T07:53:42.895Z,15.31
2024-05-09T07:56:18.564Z,15.47
2024-05-09T07:58:51.224Z,15.59
2024-05-09T08:01:21.770Z,15.76
2024-05-09T08:03:58.580Z,15.76
2024-05-09T08:06:29.355Z,15.77
2024-05-09T08:08:57.881Z,15.83
2024-05-09T08:11:29.406Z,15.90
2024-05-09T08:13:59.403Z,16.03
2024-05-09T08:16:29.584Z,15.98
2024-05-09T08:18:59.165Z,16.02
2024-05-09T08:21:29.788Z,16.08
2024-05-09T08:23:57.228Z,15.79
2024-05-09T08:26:27.208Z,15.94
2024-05-09T08:29:04.363Z,15.81
2024-05-09T08:31:34.422Z,15.99
2024-05-09T08:34:02.079Z,16.09
2024-05-09T08:36:32.246Z,16.10
2024-05-09T08:38:59.626Z,16.21
2024-05-09T08:41:30.794Z,16.62
2024-05-09T08:43:58.672Z,16.15
2024-05-09T08:46:34.213Z,16.58
2024-05-09T08:49:03.925Z,16.83
2024-05-09T08:51:34.488Z,17.18
2024-05-09T08:54:13.274Z,16.66
2024-05-09T08:56:48.545Z,16.70
2024-05-09T08:59:21.312Z,16.88
2024-05-09T09:01:54.713Z,16.95
2024-05-09T09:04:25.254Z,16.66
2024-05-09T09:06:59.211Z,16.99
2024-05-09T09:09:28.317Z,17.02
2024-05-09T09:11:58.363Z,17.75
2024-05-09T09:14:25.784Z,17.78
2024-05-09T09:17:00.602Z,17.81
2024-05-09T09:19:28.256Z,17.89
2024-05-09T09:21:58.706Z,18.05
2024-05-09T09:24:26.166Z,17.92
2024-05-09T09:27:00.173Z,17.95
2024-05-09T09:29:27.822Z,18.17
2024-05-09T09:32:04.576Z,18.27
2024-05-09T09:34:32.628Z,18.46
2024-05-09T09:37:08.244Z,18.57
2024-05-09T09:39:37.357Z,18.37
2024-05-09T09:42:17.597Z,18.20
2024-05-09T09:44:54.638Z,17.78
2024-05-09T09:47:35.095Z,17.75
2024-05-09T09:50:20.452Z,17.44
2024-05-09T09:52:55.159Z,17.77
2024-05-09T09:55:22.992Z,17.76
2024-05-09T09:57:53.155Z,17.91
2024-05-09T10:00:30.158Z,17.51
2024-05-09T10:03:05.836Z,17.33
2024-05-09T10:05:45.396Z,17.67
2024-05-09T10:08:18.780Z,17.83
2024-05-09T10:10:47.956Z,17.81
2024-05-09T10:13:19.954Z,18.05
2024-05-09T10:15:52.518Z,18.17
2024-05-09T10:18:30.158Z,18.13
2024-05-09T10:21:20.112Z,18.11
2024-05-09T10:24:00.752Z,17.97
2024-05-09T10:26:33.230Z,17.93
2024-05-09T10:29:03.726Z,18.21
2024-05-09T10:31:31.203Z,18.20
2024-05-09T10:34:05.385Z,18.28
2024-05-09T10:36:32.899Z,18.29
2024-05-09T10:39:02.913Z,18.38
2024-05-09T10:41:30.315Z,18.66
2024-05-09T10:44:00.417Z,18.80
2024-05-09T10:46:28.665Z,18.65
2024-05-09T10:49:07.175Z,19.09
2024-05-09T10:51:35.776Z,19.99
2024-05-09T10:54:06.145Z,20.13
2024-05-09T10:56:33.532Z,20.20
2024-05-09T10:59:06.782Z,20.19
2024-05-09T11:01:34.381Z,20.60
2024-05-09T11:04:08.343Z,20.31
2024-05-09T11:06:46.581Z,19.78
2024-05-09T11:09:17.712Z,19.73
2024-05-09T11:11:49.697Z,20.57
2024-05-09T11:14:20.935Z,21.50
2024-05-09T11:16:59.771Z,21.06
2024-05-09T11:19:36.081Z,21.18
2024-05-09T11:22:03.998Z,21.30
2024-05-09T11:24:34.289Z,21.05
2024-05-09T11:27:04.194Z,22.05
2024-05-09T11:29:41.807Z,21.41
2024-05-09T11:32:12.149Z,21.64
2024-05-09T11:34:45.299Z,21.76
2024-05-09T11:37:13.817Z,21.28
2024-05-09T11:39:44.022Z,20.30
2024-05-09T11:42:11.430Z,21.93
2024-05-09T11:44:41.451Z,22.92
2024-05-09T11:47:08.876Z,23.59
2024-05-09T11:49:38.879Z,23.47
2024-05-09T11:52:09.012Z,23.99
2024-05-09T11:54:39.048Z,25.05
2024-05-09T11:57:06.505Z,26.61
2024-05-09T11:59:36.533Z,25.97
2024-05-09T12:02:04.582Z,25.00
2024-05-09T12:04:34.767Z,26.00
2024-05-09T12:07:02.301Z,24.32
2024-05-09T12:09:35.049Z,22.99
2024-05-09T12:12:06.992Z,22.54
2024-05-09T12:14:37.232Z,23.94
2024-05-09T12:17:05.688Z,24.06
2024-05-09T12:19:36.047Z,24.42
2024-05-09T12:22:08.808Z,23.98
2024-05-09T12:24:41.644Z,24.81
2024-05-09T12:27:09.081Z,23.95
2024-05-09T12:29:39.143Z,25.05
2024-05-09T12:32:07.539Z,24.59
2024-05-09T12:34:37.734Z,25.85
2024-05-09T12:37:05.461Z,25.49
2024-05-09T12:39:35.554Z,25.67
2024-05-09T12:42:16.608Z,24.11
2024-05-09T12:44:52.137Z,24.12
2024-05-09T12:47:19.709Z,23.38
2024-05-09T12:49:49.804Z,22.75
2024-05-09T12:52:17.327Z,22.28
2024-05-09T12:54:47.330Z,22.42
2024-05-09T12:57:17.424Z,22.54
2024-05-09T12:59:47.568Z,23.70
2024-05-09T13:02:15.901Z,25.93
2024-05-09T13:04:46.148Z,24.91
2024-05-09T13:07:13.833Z,25.53
2024-05-09T13:09:44.087Z,24.67
2024-05-09T13:12:11.538Z,24.71
2024-05-09T13:14:44.159Z,25.51
2024-05-09T13:17:11.763Z,26.74
2024-05-09T13:19:41.836Z,25.97
2024-05-09T13:22:09.335Z,24.60
2024-05-09T13:24:39.589Z,24.12
2024-05-09T13:27:07.055Z,24.93
2024-05-09T13:29:38.087Z,25.50
2024-05-09T13:32:09.343Z,24.78
2024-05-09T13:34:39.496Z,24.93
2024-05-09T13:37:07.007Z,24.89
2024-05-09T13:39:37.664Z,24.04
2024-05-09T13:42:05.672Z,24.87
2024-05-09T13:44:35.859Z,25.27
2024-05-09T13:47:03.351Z,24.46
2024-05-09T13:49:36.186Z,24.49
2024-05-09T13:52:03.772Z,24.30
2024-05-09T13:54:33.855Z,23.64
2024-05-09T13:57:01.393Z,23.79
2024-05-09T13:59:32.349Z,24.71
2024-05-09T14:01:59.866Z,24.35
2024-05-09T14:04:30.204Z,25.77
2024-05-09T14:07:00.544Z,24.91
2024-05-09T14:09:30.992Z,24.14
2024-05-09T14:11:58.525Z,24.34
2024-05-09T14:14:28.592Z,23.71
2024-05-09T14:16:56.069Z,23.39
2024-05-09T14:19:26.102Z,23.34
2024-05-09T14:21:53.592Z,23.45
2024-05-09T14:24:26.298Z,24.64
2024-05-09T14:26:53.904Z,24.57
2024-05-09T14:29:23.919Z,23.36
2024-05-09T14:31:51.307Z,23.33
2024-05-09T14:34:21.510Z,23.27
2024-05-09T14:36:58.778Z,23.02
2024-05-09T14:39:31.487Z,23.08
2024-05-09T14:41:58.873Z,23.35
2024-05-09T14:44:28.876Z,22.77
2024-05-09T14:46:56.392Z,22.42
2024-05-09T14:49:26.429Z,22.22
2024-05-09T14:51:54.028Z,21.92
2024-05-09T14:54:24.257Z,22.23
2024-05-09T14:56:55.133Z,22.23
2024-05-09T14:59:25.226Z,22.20
2024-05-09T15:01:52.724Z,22.19
2024-05-09T15:04:24.947Z,22.46
2024-05-09T15:06:53.460Z,22.38
2024-05-09T15:09:23.475Z,22.67
2024-05-09T15:11:54.022Z,23.04
2024-05-09T15:14:31.117Z,23.39
2024-05-09T15:16:58.533Z,24.90
2024-05-09T15:19:28.840Z,25.91
2024-05-09T15:21:56.404Z,25.03
2024-05-09T15:24:26.726Z,25.78
2024-05-09T15:26:56.831Z,26.19
2024-05-09T15:29:26.914Z,26.38
2024-05-09T15:31:54.354Z,26.57
2024-05-09T15:34:24.483Z,26.26
2024-05-09T15:36:52.071Z,26.40
2024-05-09T15:39:24.449Z,27.05
2024-05-09T15:41:53.135Z,27.09
2024-05-09T15:44:25.725Z,26.35
2024-05-09T15:46:53.389Z,25.58
2024-05-09T15:49:24.268Z,25.89
2024-05-09T15:51:51.755Z,25.20
2024-05-09T15:54:22.979Z,24.41
2024-05-09T15:56:51.719Z,22.80
2024-05-09T15:59:21.842Z,23.10
2024-05-09T16:01:51.907Z,22.52
2024-05-09T16:04:22.407Z,22.61
2024-05-09T16:06:49.938Z,22.54
2024-05-09T16:09:21.244Z,22.42
2024-05-09T16:11:49.793Z,22.62
2024-05-09T16:14:19.793Z,22.39
2024-05-09T16:16:47.591Z,22.07
2024-05-09T16:19:20.473Z,21.84
2024-05-09T16:21:48.003Z,21.88
2024-05-09T16:24:18.188Z,21.94
2024-05-09T16:26:47.515Z,21.78
2024-05-09T16:29:18.578Z,21.52
2024-05-09T16:31:45.947Z,21.51
2024-05-09T16:34:16.200Z,21.27
2024-05-09T16:36:46.411Z,21.30
2024-05-09T16:39:17.453Z,21.54
2024-05-09T16:41:45.078Z,21.47
2024-05-09T16:44:15.087Z,21.43
2024-05-09T16:46:42.499Z,21.42
2024-05-09T16:49:13.241Z,21.25
2024-05-09T16:51:40.680Z,21.08
2024-05-09T16:54:13.328Z,21.05
2024-05-09T16:56:40.809Z,21.04
2024-05-09T16:59:10.879Z,20.92
2024-05-09T17:01:38.386Z,20.97
2024-05-09T17:04:08.786Z,20.85
2024-05-09T17:06:36.413Z,20.82
2024-05-09T17:09:18.024Z,20.88
2024-05-09T17:11:46.848Z,20.79
2024-05-09T17:14:17.485Z,20.56
2024-05-09T17:16:48.599Z,20.55
2024-05-09T17:19:18.983Z,20.52
2024-05-09T17:21:46.574Z,20.43
2024-05-09T17:24:19.425Z,20.43
2024-05-09T17:26:48.577Z,20.24
2024-05-09T17:29:18.684Z,20.08
2024-05-09T17:31:46.910Z,20.08
2024-05-09T17:34:17.003Z,20.06
2024-05-09T17:37:00.450Z,20.05
2024-05-09T17:39:33.322Z,20.06
2024-05-09T17:42:00.859Z,19.92
2024-05-09T17:44:30.837Z,20.01
2024-05-09T17:46:58.270Z,19.77
2024-05-09T17:49:28.453Z,19.69
2024-05-09T17:51:56.278Z,19.64
2024-05-09T17:54:26.472Z,19.56
2024-05-09T17:56:58.734Z,19.59
2024-05-09T17:59:29.270Z,19.61
2024-05-09T18:01:56.704Z,19.45
2024-05-09T18:04:29.643Z,19.39
2024-05-09T18:06:58.366Z,19.53
2024-05-09T18:09:28.480Z,19.53
2024-05-09T18:11:58.631Z,19.37
2024-05-09T18:14:29.339Z,19.18
2024-05-09T18:16:56.699Z,19.26
2024-05-09T18:19:26.870Z,19.34
2024-05-09T18:21:54.421Z,19.18
2024-05-09T18:24:24.727Z,19.05
2024-05-09T18:26:52.124Z,19.10
2024-05-09T18:29:24.798Z,19.08
2024-05-09T18:31:52.293Z,19.04
2024-05-09T18:34:22.311Z,18.96
2024-05-09T18:36:49.813Z,18.86
2024-05-09T18:39:20.079Z,18.80
2024-05-09T18:41:51.215Z,18.70
2024-05-09T18:44:21.227Z,18.66
2024-05-09T18:46:51.292Z,18.82
2024-05-09T18:49:18.919Z,18.55
2024-05-09T18:51:49.398Z,18.50
2024-05-09T18:54:16.821Z,18.52
2024-05-09T18:56:46.856Z,18.47
2024-05-09T18:59:14.269Z,18.43
2024-05-09T19:01:47.024Z,18.27
2024-05-09T19:04:18.328Z,18.32
2024-05-09T19:06:49.100Z,18.31
2024-05-09T19:09:16.465Z,18.25
2024-05-09T19:11:46.667Z,18.15
2024-05-09T19:14:14.058Z,18.33
2024-05-09T19:16:47.148Z,18.29
2024-05-09T19:19:15.074Z,18.33
2024-05-09T19:21:45.311Z,18.30
2024-05-09T19:24:12.811Z,18.29
2024-05-09T19:26:42.944Z,18.21
2024-05-09T19:29:10.471Z,18.12
2024-05-09T19:31:40.449Z,17.99
2024-05-09T19:34:10.559Z,17.90
2024-05-09T19:36:40.857Z,17.84
2024-05-09T19:39:08.254Z,17.90
2024-05-09T19:41:38.346Z,17.73
2024-05-09T19:44:06.135Z,17.66
2024-05-09T19:46:36.348Z,17.54
2024-05-09T19:49:05.807Z,17.51
2024-05-09T19:51:39.122Z,17.50
2024-05-09T19:54:06.535Z,17.48
2024-05-09T19:56:36.788Z,17.46
2024-05-09T19:59:04.253Z,17.28
2024-05-09T20:01:34.396Z,17.27
2024-05-09T20:04:02.172Z,17.14
2024-05-09T20:06:32.439Z,17.00
2024-05-09T20:09:02.607Z,16.82
2024-05-09T20:11:33.297Z,16.68
2024-05-09T20:14:00.792Z,16.53
2024-05-09T20:16:31.102Z,16.38
2024-05-09T20:18:58.589Z,16.26
2024-05-09T20:21:28.649Z,16.06
2024-05-09T20:23:56.201Z,16.05
2024-05-09T20:26:30.831Z,15.88
2024-05-09T20:28:58.508Z,15.77
2024-05-09T20:31:28.525Z,15.61
2024-05-09T20:33:56.081Z,15.36
2024-05-09T20:36:26.191Z,15.23
2024-05-09T20:38:56.028Z,15.09
2024-05-09T20:41:28.657Z,15.06
2024-05-09T20:43:58.145Z,14.98
2024-05-09T20:46:28.190Z,14.96
2024-05-09T20:48:56.460Z,14.92
2024-05-09T20:51:27.634Z,15.01
2024-05-09T20:53:56.179Z,14.84
2024-05-09T20:56:28.831Z,14.45
2024-05-09T20:58:56.960Z,14.45
2024-05-09T21:01:28.096Z,14.38
2024-05-09T21:03:55.629Z,14.25
2024-05-09T21:06:25.770Z,14.19
2024-05-09T21:08:53.116Z,14.11
2024-05-09T21:11:25.065Z,13.99
2024-05-09T21:13:55.314Z,13.96
2024-05-09T21:16:25.508Z,13.96
2024-05-09T21:18:53.051Z,13.84
2024-05-09T21:21:23.082Z,13.81
2024-05-09T21:23:54.179Z,13.69
2024-05-09T21:26:24.903Z,13.61
2024-05-09T21:28:55.127Z,13.60
2024-05-09T21:31:29.699Z,13.64
2024-05-09T21:34:03.444Z,13.69
2024-05-09T21:36:33.550Z,13.70
2024-05-09T21:39:00.977Z,13.64
2024-05-09T21:41:38.972Z,13.58
2024-05-09T21:44:09.027Z,13.60
2024-05-09T21:46:39.179Z,13.59
2024-05-09T21:49:06.700Z,13.44
2024-05-09T21:51:36.792Z,13.38
2024-05-09T21:54:04.981Z,13.39
2024-05-09T21:56:34.937Z,13.37
2024-05-09T21:59:02.288Z,13.27
2024-05-09T22:01:35.953Z,13.21
2024-05-09T22:04:03.715Z,13.22
2024-05-09T22:06:34.044Z,13.22
2024-05-09T22:09:05.838Z,13.14
2024-05-09T22:11:35.842Z,13.12
2024-05-09T22:14:03.221Z,13.02
2024-05-09T22:16:35.955Z,12.92
2024-05-09T22:19:03.522Z,12.86
2024-05-09T22:21:33.575Z,12.73
2024-05-09T22:24:01.407Z,12.67
2024-05-09T22:26:31.452Z,12.62
2024-05-09T22:29:02.056Z,12.62
2024-05-09T22:31:32.210Z,12.66
2024-05-09T22:34:03.021Z,12.60
2024-05-09T22:36:33.299Z,12.55
2024-05-09T22:39:00.760Z,12.41
2024-05-09T22:41:30.781Z,12.37
2024-05-09T22:43:58.586Z,12.31
2024-05-09T22:46:28.778Z,12.16
2024-05-09T22:48:56.464Z,12.16
2024-05-09T22:51:29.138Z,12.17
2024-05-09T22:53:56.640Z,12.14
2024-05-09T22:56:30.071Z,12.04
2024-05-09T22:58:58.034Z,12.04
2024-05-09T23:01:28.160Z,11.98
2024-05-09T23:03:55.838Z,11.93
2024-05-09T23:06:28.633Z,11.86
2024-05-09T23:08:56.065Z,11.78
2024-05-09T23:11:26.273Z,11.78
2024-05-09T23:13:53.786Z,11.79
2024-05-09T23:16:23.958Z,11.73
2024-05-09T23:18:51.423Z,11.72
2024-05-09T23:21:21.480Z,11.67
2024-05-09T23:24:04.582Z,11.62
2024-05-09T23:26:34.755Z,11.50
2024-05-09T23:29:02.325Z,11.50
2024-05-09T23:31:32.313Z,11.63
2024-05-09T23:34:00.021Z,11.53
2024-05-09T23:36:30.793Z,11.50
2024-05-09T23:38:58.195Z,11.60
2024-05-09T23:41:30.877Z,11.52
2024-05-09T23:43:58.239Z,11.51
2024-05-09T23:46:28.548Z,11.46
2024-05-09T23:48:56.128Z,11.39
2024-05-09T23:51:26.263Z,11.30
2024-05-09T23:53:53.638Z,11.37
2024-05-09T23:56:24.892Z,11.39
2024-05-09T23:58:55.038Z,11.33
